sensor_id;sensor_type;location;lat;lon;timestamp;pressure;altitude;pressure_sealevel;temperature;humidity
10948;BME280;5526;42.070;24.752;2024-02-23T00:01:18;98915.00;;;7.58;91.63
10948;BME280;5526;42.070;24.752;2024-02-23T00:03:45;98918.44;;;7.58;92.27
10948;BME280;5526;42.070;24.752;2024-02-23T00:06:12;98909.53;;;7.59;91.70
10948;BME280;5526;42.070;24.752;2024-02-23T00:08:41;98910.78;;;7.40;92.63
10948;BME280;5526;42.070;24.752;2024-02-23T00:11:08;98912.03;;;7.38;93.17
10948;BME280;5526;42.070;24.752;2024-02-23T00:13:35;98910.22;;;7.38;93.27
10948;BME280;5526;42.070;24.752;2024-02-23T00:16:03;98903.69;;;7.24;94.10
10948;BME280;5526;42.070;24.752;2024-02-23T00:18:30;98920.19;;;7.25;94.69
10948;BME280;5526;42.070;24.752;2024-02-23T00:20:57;98913.91;;;7.26;94.61
10948;BME280;5526;42.070;24.752;2024-02-23T00:23:24;98922.00;;;7.24;94.22
10948;BME280;5526;42.070;24.752;2024-02-23T00:25:53;98912.88;;;7.27;94.30
10948;BME280;5526;42.070;24.752;2024-02-23T00:28:20;98906.22;;;7.19;95.01
10948;BME280;5526;42.070;24.752;2024-02-23T00:30:47;98900.31;;;7.12;95.72
10948;BME280;5526;42.070;24.752;2024-02-23T00:33:14;98889.84;;;7.12;96.22
10948;BME280;5526;42.070;24.752;2024-02-23T00:35:41;98890.50;;;7.19;96.46
10948;BME280;5526;42.070;24.752;2024-02-23T00:38:08;98889.16;;;7.17;97.00
10948;BME280;5526;42.070;24.752;2024-02-23T00:40:35;98889.00;;;7.23;97.63
10948;BME280;5526;42.070;24.752;2024-02-23T00:43:04;98878.53;;;7.23;96.73
10948;BME280;5526;42.070;24.752;2024-02-23T00:45:31;98883.13;;;7.16;97.36
10948;BME280;5526;42.070;24.752;2024-02-23T00:47:58;98884.69;;;7.17;97.80
10948;BME280;5526;42.070;24.752;2024-02-23T00:50:25;98874.22;;;7.17;97.59
10948;BME280;5526;42.070;24.752;2024-02-23T00:52:52;98877.03;;;7.27;97.25
10948;BME280;5526;42.070;24.752;2024-02-23T00:55:20;98876.69;;;7.24;97.26
10948;BME280;5526;42.070;24.752;2024-02-23T00:57:47;98878.78;;;7.22;97.87
10948;BME280;5526;42.070;24.752;2024-02-23T01:00:16;98878.16;;;7.31;96.71
10948;BME280;5526;42.070;24.752;2024-02-23T01:02:43;98875.53;;;7.31;96.18
10948;BME280;5526;42.070;24.752;2024-02-23T01:05:10;98868.34;;;7.38;96.01
10948;BME280;5526;42.070;24.752;2024-02-23T01:07:38;98870.00;;;7.44;95.58
10948;BME280;5526;42.070;24.752;2024-02-23T01:10:06;98875.81;;;7.46;95.63
10948;BME280;5526;42.070;24.752;2024-02-23T01:12:33;98874.19;;;7.45;95.11
10948;BME280;5526;42.070;24.752;2024-02-23T01:15:00;98856.56;;;7.24;95.17
10948;BME280;5526;42.070;24.752;2024-02-23T01:17:28;98865.63;;;7.33;95.10
10948;BME280;5526;42.070;24.752;2024-02-23T01:19:55;98859.84;;;7.31;94.77
10948;BME280;5526;42.070;24.752;2024-02-23T01:22:22;98857.16;;;7.26;95.27
10948;BME280;5526;42.070;24.752;2024-02-23T01:24:49;98837.28;;;7.14;95.18
10948;BME280;5526;42.070;24.752;2024-02-23T01:27:17;98857.41;;;7.13;95.30
10948;BME280;5526;42.070;24.752;2024-02-23T01:29:44;98850.09;;;6.99;96.66
10948;BME280;5526;42.070;24.752;2024-02-23T01:32:11;98851.34;;;6.96;96.55
10948;BME280;5526;42.070;24.752;2024-02-23T01:34:39;98850.38;;;6.74;97.82
10948;BME280;5526;42.070;24.752;2024-02-23T01:37:06;98856.22;;;6.65;98.14
10948;BME280;5526;42.070;24.752;2024-02-23T01:39:33;98852.50;;;6.49;99.62
10948;BME280;5526;42.070;24.752;2024-02-23T01:42:00;98849.13;;;6.37;100.00
10948;BME280;5526;42.070;24.752;2024-02-23T01:44:27;98848.31;;;6.48;100.00
10948;BME280;5526;42.070;24.752;2024-02-23T01:46:54;98852.69;;;6.59;100.00
10948;BME280;5526;42.070;24.752;2024-02-23T01:49:22;98853.97;;;6.57;100.00
10948;BME280;5526;42.070;24.752;2024-02-23T01:51:57;98849.75;;;6.56;100.00
10948;BME280;5526;42.070;24.752;2024-02-23T01:54:24;98844.41;;;6.62;100.00
10948;BME280;5526;42.070;24.752;2024-02-23T01:56:52;98842.72;;;6.56;100.00
10948;BME280;5526;42.070;24.752;2024-02-23T01:59:19;98841.47;;;6.59;100.00
10948;BME280;5526;42.070;24.752;2024-02-23T02:01:47;98836.09;;;6.65;100.00
10948;BME280;5526;42.070;24.752;2024-02-23T02:04:14;98838.47;;;6.67;100.00
10948;BME280;5526;42.070;24.752;2024-02-23T02:06:41;98825.50;;;6.72;99.94
10948;BME280;5526;42.070;24.752;2024-02-23T02:09:10;98830.72;;;6.72;99.94
10948;BME280;5526;42.070;24.752;2024-02-23T02:11:45;98833.50;;;6.65;99.42
10948;BME280;5526;42.070;24.752;2024-02-23T02:14:12;98829.66;;;6.56;100.00
10948;BME280;5526;42.070;24.752;2024-02-23T02:16:39;98827.34;;;6.60;100.00
10948;BME280;5526;42.070;24.752;2024-02-23T02:19:06;98829.44;;;6.58;99.41
10948;BME280;5526;42.070;24.752;2024-02-23T02:21:33;98824.50;;;6.61;99.29
10948;BME280;5526;42.070;24.752;2024-02-23T02:24:01;98832.72;;;6.53;99.05
10948;BME280;5526;42.070;24.752;2024-02-23T02:26:29;98833.03;;;6.57;99.29
10948;BME280;5526;42.070;24.752;2024-02-23T02:28:56;98826.69;;;6.53;98.53
10948;BME280;5526;42.070;24.752;2024-02-23T02:31:24;98825.91;;;6.52;99.26
10948;BME280;5526;42.070;24.752;2024-02-23T02:33:51;98828.16;;;6.60;98.84
10948;BME280;5526;42.070;24.752;2024-02-23T02:36:18;98834.31;;;6.54;98.45
10948;BME280;5526;42.070;24.752;2024-02-23T02:38:45;98830.47;;;6.45;98.50
10948;BME280;5526;42.070;24.752;2024-02-23T02:41:12;98836.50;;;6.46;98.82
10948;BME280;5526;42.070;24.752;2024-02-23T02:43:40;98839.22;;;6.51;98.72
10948;BME280;5526;42.070;24.752;2024-02-23T02:46:07;98837.72;;;6.43;99.54
10948;BME280;5526;42.070;24.752;2024-02-23T02:48:34;98838.22;;;6.40;100.00
10948;BME280;5526;42.070;24.752;2024-02-23T02:51:01;98832.28;;;6.45;99.96
10948;BME280;5526;42.070;24.752;2024-02-23T02:53:28;98834.00;;;6.39;99.72
10948;BME280;5526;42.070;24.752;2024-02-23T02:55:56;98838.44;;;6.39;99.99
10948;BME280;5526;42.070;24.752;2024-02-23T02:58:23;98839.81;;;6.41;99.99
10948;BME280;5526;42.070;24.752;2024-02-23T03:00:51;98835.94;;;6.44;99.32
10948;BME280;5526;42.070;24.752;2024-02-23T03:03:18;98829.78;;;6.38;99.39
10948;BME280;5526;42.070;24.752;2024-02-23T03:05:45;98835.13;;;6.43;99.59
10948;BME280;5526;42.070;24.752;2024-02-23T03:08:12;98839.69;;;6.25;99.95
10948;BME280;5526;42.070;24.752;2024-02-23T03:10:39;98845.41;;;6.10;100.00
10948;BME280;5526;42.070;24.752;2024-02-23T03:13:06;98845.19;;;6.12;100.00
10948;BME280;5526;42.070;24.752;2024-02-23T03:15:33;98859.16;;;6.17;100.00
10948;BME280;5526;42.070;24.752;2024-02-23T03:18:02;98857.00;;;6.03;100.00
10948;BME280;5526;42.070;24.752;2024-02-23T03:20:29;98858.47;;;5.99;100.00
10948;BME280;5526;42.070;24.752;2024-02-23T03:22:56;98852.97;;;5.77;100.00
10948;BME280;5526;42.070;24.752;2024-02-23T03:25:23;98850.38;;;5.77;100.00
10948;BME280;5526;42.070;24.752;2024-02-23T03:27:50;98851.19;;;5.89;100.00
10948;BME280;5526;42.070;24.752;2024-02-23T03:30:17;98851.28;;;5.83;100.00
10948;BME280;5526;42.070;24.752;2024-02-23T03:32:44;98857.41;;;5.77;100.00
10948;BME280;5526;42.070;24.752;2024-02-23T03:35:14;98856.66;;;5.88;100.00
10948;BME280;5526;42.070;24.752;2024-02-23T03:37:41;98848.91;;;5.93;100.00
10948;BME280;5526;42.070;24.752;2024-02-23T03:40:09;98859.69;;;5.96;100.00
10948;BME280;5526;42.070;24.752;2024-02-23T03:42:36;98852.56;;;5.92;100.00
10948;BME280;5526;42.070;24.752;2024-02-23T03:45:04;98835.53;;;5.89;100.00
10948;BME280;5526;42.070;24.752;2024-02-23T03:47:32;98860.38;;;6.03;100.00
10948;BME280;5526;42.070;24.752;2024-02-23T03:49:59;98861.19;;;6.04;100.00
10948;BME280;5526;42.070;24.752;2024-02-23T03:52:27;98863.09;;;6.08;100.00
10948;BME280;5526;42.070;24.752;2024-02-23T03:54:54;98859.25;;;5.99;100.00
10948;BME280;5526;42.070;24.752;2024-02-23T03:57:22;98860.06;;;6.00;100.00
10948;BME280;5526;42.070;24.752;2024-02-23T03:59:52;98860.50;;;6.08;100.00
10948;BME280;5526;42.070;24.752;2024-02-23T04:02:19;98854.59;;;6.01;100.00
10948;BME280;5526;42.070;24.752;2024-02-23T04:04:47;98853.91;;;6.06;100.00
10948;BME280;5526;42.070;24.752;2024-02-23T04:07:14;98857.31;;;6.06;100.00
10948;BME280;5526;42.070;24.752;2024-02-23T04:09:43;98851.88;;;5.96;100.00
10948;BME280;5526;42.070;24.752;2024-02-23T04:12:11;98819.19;;;5.82;100.00
10948;BME280;5526;42.070;24.752;2024-02-23T04:14:38;98854.03;;;5.99;100.00
10948;BME280;5526;42.070;24.752;2024-02-23T04:17:06;98852.44;;;5.98;100.00
10948;BME280;5526;42.070;24.752;2024-02-23T04:19:33;98860.16;;;6.05;100.00
10948;BME280;5526;42.070;24.752;2024-02-23T04:22:00;98856.09;;;5.97;100.00
10948;BME280;5526;42.070;24.752;2024-02-23T04:24:26;98865.41;;;5.93;100.00
10948;BME280;5526;42.070;24.752;2024-02-23T04:26:55;98857.78;;;5.92;100.00
10948;BME280;5526;42.070;24.752;2024-02-23T04:29:22;98855.50;;;5.95;100.00
10948;BME280;5526;42.070;24.752;2024-02-23T04:31:49;98859.47;;;5.98;100.00
10948;BME280;5526;42.070;24.752;2024-02-23T04:34:16;98855.59;;;6.00;100.00
10948;BME280;5526;42.070;24.752;2024-02-23T04:36:43;98853.47;;;5.97;100.00
10948;BME280;5526;42.070;24.752;2024-02-23T04:39:09;98853.22;;;5.87;100.00
10948;BME280;5526;42.070;24.752;2024-02-23T04:41:37;98844.03;;;5.85;100.00
10948;BME280;5526;42.070;24.752;2024-02-23T04:44:05;98850.63;;;5.87;100.00
10948;BME280;5526;42.070;24.752;2024-02-23T04:46:32;98849.94;;;5.92;100.00
10948;BME280;5526;42.070;24.752;2024-02-23T04:49:00;98848.25;;;5.97;100.00
10948;BME280;5526;42.070;24.752;2024-02-23T04:51:27;98842.81;;;5.99;100.00
10948;BME280;5526;42.070;24.752;2024-02-23T04:53:54;98845.19;;;5.89;100.00
10948;BME280;5526;42.070;24.752;2024-02-23T04:56:21;98853.81;;;5.89;100.00
10948;BME280;5526;42.070;24.752;2024-02-23T04:58:48;98847.13;;;5.93;100.00
10948;BME280;5526;42.070;24.752;2024-02-23T05:01:16;98858.91;;;5.84;100.00
10948;BME280;5526;42.070;24.752;2024-02-23T05:03:43;98869.34;;;5.84;100.00
10948;BME280;5526;42.070;24.752;2024-02-23T05:06:10;98870.69;;;5.87;100.00
10948;BME280;5526;42.070;24.752;2024-02-23T05:08:38;98870.84;;;5.92;100.00
10948;BME280;5526;42.070;24.752;2024-02-23T05:11:05;98868.00;;;5.93;100.00
10948;BME280;5526;42.070;24.752;2024-02-23T05:13:32;98860.72;;;5.95;100.00
10948;BME280;5526;42.070;24.752;2024-02-23T05:15:59;98867.66;;;5.90;100.00
10948;BME280;5526;42.070;24.752;2024-02-23T05:18:28;98866.41;;;5.92;100.00
10948;BME280;5526;42.070;24.752;2024-02-23T05:20:55;98871.97;;;5.96;100.00
10948;BME280;5526;42.070;24.752;2024-02-23T05:23:22;98870.84;;;5.92;100.00
10948;BME280;5526;42.070;24.752;2024-02-23T05:25:49;98874.00;;;5.94;100.00
10948;BME280;5526;42.070;24.752;2024-02-23T05:28:16;98878.44;;;6.05;100.00
10948;BME280;5526;42.070;24.752;2024-02-23T05:30:43;98881.53;;;6.13;100.00
10948;BME280;5526;42.070;24.752;2024-02-23T05:33:10;98881.84;;;6.17;100.00
10948;BME280;5526;42.070;24.752;2024-02-23T05:35:38;98887.88;;;6.17;100.00
10948;BME280;5526;42.070;24.752;2024-02-23T05:38:06;98885.38;;;6.22;100.00
10948;BME280;5526;42.070;24.752;2024-02-23T05:40:33;98874.56;;;6.30;100.00
10948;BME280;5526;42.070;24.752;2024-02-23T05:43:00;98887.97;;;6.45;100.00
10948;BME280;5526;42.070;24.752;2024-02-23T05:45:27;98884.31;;;6.46;100.00
10948;BME280;5526;42.070;24.752;2024-02-23T05:47:54;98886.59;;;6.54;100.00
10948;BME280;5526;42.070;24.752;2024-02-23T05:50:21;98891.00;;;6.65;100.00
10948;BME280;5526;42.070;24.752;2024-02-23T05:52:49;98891.31;;;6.80;100.00
10948;BME280;5526;42.070;24.752;2024-02-23T05:55:18;98890.06;;;6.83;100.00
10948;BME280;5526;42.070;24.752;2024-02-23T05:57:45;98886.81;;;6.64;100.00
10948;BME280;5526;42.070;24.752;2024-02-23T06:00:13;98893.63;;;6.65;100.00
10948;BME280;5526;42.070;24.752;2024-02-23T06:02:44;98898.94;;;6.70;100.00
10948;BME280;5526;42.070;24.752;2024-02-23T06:05:12;98899.16;;;6.80;100.00
10948;BME280;5526;42.070;24.752;2024-02-23T06:07:41;98903.66;;;6.96;100.00
10948;BME280;5526;42.070;24.752;2024-02-23T06:10:09;98913.56;;;6.94;100.00
10948;BME280;5526;42.070;24.752;2024-02-23T06:12:36;98929.66;;;8.03;94.58
10948;BME280;5526;42.070;24.752;2024-02-23T06:15:05;98924.31;;;7.37;97.73
10948;BME280;5526;42.070;24.752;2024-02-23T06:17:32;98933.16;;;7.20;99.74
10948;BME280;5526;42.070;24.752;2024-02-23T06:19:59;98936.41;;;6.99;100.00
10948;BME280;5526;42.070;24.752;2024-02-23T06:22:26;98938.22;;;7.10;100.00
10948;BME280;5526;42.070;24.752;2024-02-23T06:24:53;98929.31;;;7.50;97.69
10948;BME280;5526;42.070;24.752;2024-02-23T06:27:21;98943.81;;;6.90;99.64
10948;BME280;5526;42.070;24.752;2024-02-23T06:29:50;98941.00;;;6.69;100.00
10948;BME280;5526;42.070;24.752;2024-02-23T06:32:18;98945.47;;;6.45;100.00
10948;BME280;5526;42.070;24.752;2024-02-23T06:34:45;98945.47;;;6.45;100.00
10948;BME280;5526;42.070;24.752;2024-02-23T06:37:12;98945.59;;;6.62;100.00
10948;BME280;5526;42.070;24.752;2024-02-23T06:39:39;98947.38;;;6.73;100.00
10948;BME280;5526;42.070;24.752;2024-02-23T06:42:07;98949.75;;;6.74;100.00
10948;BME280;5526;42.070;24.752;2024-02-23T06:44:35;98948.63;;;6.47;100.00
10948;BME280;5526;42.070;24.752;2024-02-23T06:47:02;98941.09;;;6.85;100.00
10948;BME280;5526;42.070;24.752;2024-02-23T06:49:30;98943.72;;;6.97;100.00
10948;BME280;5526;42.070;24.752;2024-02-23T06:51:57;98942.97;;;7.13;100.00
10948;BME280;5526;42.070;24.752;2024-02-23T06:54:24;98940.91;;;7.26;100.00
10948;BME280;5526;42.070;24.752;2024-02-23T06:56:51;98937.16;;;7.50;100.00
10948;BME280;5526;42.070;24.752;2024-02-23T06:59:18;98934.16;;;7.58;100.00
10948;BME280;5526;42.070;24.752;2024-02-23T07:01:50;98935.84;;;7.81;98.65
10948;BME280;5526;42.070;24.752;2024-02-23T07:04:18;98929.25;;;8.11;98.27
10948;BME280;5526;42.070;24.752;2024-02-23T07:06:45;98928.84;;;8.19;96.27
10948;BME280;5526;42.070;24.752;2024-02-23T07:09:12;98939.13;;;8.37;96.11
10948;BME280;5526;42.070;24.752;2024-02-23T07:11:40;98938.66;;;8.40;95.68
10948;BME280;5526;42.070;24.752;2024-02-23T07:14:09;98941.81;;;8.42;94.41
10948;BME280;5526;42.070;24.752;2024-02-23T07:16:38;98950.13;;;8.72;93.45
10948;BME280;5526;42.070;24.752;2024-02-23T07:19:07;98942.69;;;8.86;92.05
10948;BME280;5526;42.070;24.752;2024-02-23T07:21:35;98939.59;;;9.11;91.50
10948;BME280;5526;42.070;24.752;2024-02-23T07:24:02;98943.13;;;9.48;90.31
10948;BME280;5526;42.070;24.752;2024-02-23T07:26:29;98939.63;;;9.64;88.40
10948;BME280;5526;42.070;24.752;2024-02-23T07:28:56;98949.19;;;9.75;87.67
10948;BME280;5526;42.070;24.752;2024-02-23T07:31:23;98940.47;;;9.69;86.64
10948;BME280;5526;42.070;24.752;2024-02-23T07:33:51;98928.09;;;9.65;86.53
10948;BME280;5526;42.070;24.752;2024-02-23T07:36:19;98928.75;;;9.82;86.50
10948;BME280;5526;42.070;24.752;2024-02-23T07:38:47;98925.72;;;9.95;86.40
10948;BME280;5526;42.070;24.752;2024-02-23T07:41:14;98940.41;;;9.91;86.96
10948;BME280;5526;42.070;24.752;2024-02-23T07:43:43;98928.09;;;9.96;86.96
10948;BME280;5526;42.070;24.752;2024-02-23T07:46:10;98934.47;;;10.37;85.32
10948;BME280;5526;42.070;24.752;2024-02-23T07:48:37;98931.50;;;10.70;83.61
10948;BME280;5526;42.070;24.752;2024-02-23T07:51:05;98935.19;;;10.64;83.09
10948;BME280;5526;42.070;24.752;2024-02-23T07:53:34;98927.66;;;10.87;81.58
10948;BME280;5526;42.070;24.752;2024-02-23T07:56:01;98920.59;;;10.98;81.18
10948;BME280;5526;42.070;24.752;2024-02-23T07:58:29;98927.78;;;11.17;80.30
10948;BME280;5526;42.070;24.752;2024-02-23T08:00:56;98927.72;;;11.07;79.45
10948;BME280;5526;42.070;24.752;2024-02-23T08:03:23;98923.28;;;11.08;79.79
10948;BME280;5526;42.070;24.752;2024-02-23T08:05:51;98932.47;;;11.00;79.85
10948;BME280;5526;42.070;24.752;2024-02-23T08:08:18;98928.34;;;11.34;79.56
10948;BME280;5526;42.070;24.752;2024-02-23T08:10:49;98924.97;;;11.59;77.54
10948;BME280;5526;42.070;24.752;2024-02-23T08:13:16;98923.94;;;11.60;77.29
10948;BME280;5526;42.070;24.752;2024-02-23T08:15:44;98915.56;;;11.73;76.89
10948;BME280;5526;42.070;24.752;2024-02-23T08:18:11;98906.03;;;11.67;75.45
10948;BME280;5526;42.070;24.752;2024-02-23T08:20:38;98915.56;;;11.73;76.11
10948;BME280;5526;42.070;24.752;2024-02-23T08:23:05;98922.94;;;12.01;74.65
10948;BME280;5526;42.070;24.752;2024-02-23T08:25:33;98918.72;;;12.15;74.28
10948;BME280;5526;42.070;24.752;2024-02-23T08:28:01;98921.09;;;11.76;74.76
10948;BME280;5526;42.070;24.752;2024-02-23T08:30:28;98924.00;;;12.25;74.53
10948;BME280;5526;42.070;24.752;2024-02-23T08:32:55;98924.44;;;13.41;67.65
10948;BME280;5526;42.070;24.752;2024-02-23T08:35:22;98919.28;;;13.16;68.51
10948;BME280;5526;42.070;24.752;2024-02-23T08:37:49;98927.81;;;12.92;70.12
10948;BME280;5526;42.070;24.752;2024-02-23T08:40:17;98922.75;;;13.01;70.25
10948;BME280;5526;42.070;24.752;2024-02-23T08:42:44;98917.47;;;13.01;69.09
10948;BME280;5526;42.070;24.752;2024-02-23T08:45:13;98922.19;;;13.14;68.41
10948;BME280;5526;42.070;24.752;2024-02-23T08:47:41;98921.69;;;12.97;68.72
10948;BME280;5526;42.070;24.752;2024-02-23T08:50:09;98921.59;;;13.27;68.08
10948;BME280;5526;42.070;24.752;2024-02-23T08:52:36;98920.97;;;13.40;67.33
10948;BME280;5526;42.070;24.752;2024-02-23T08:55:04;98919.69;;;13.81;66.17
10948;BME280;5526;42.070;24.752;2024-02-23T08:57:31;98915.63;;;14.27;65.53
10948;BME280;5526;42.070;24.752;2024-02-23T08:59:58;98922.63;;;14.70;63.51
10948;BME280;5526;42.070;24.752;2024-02-23T09:02:26;98922.97;;;14.59;62.59
10948;BME280;5526;42.070;24.752;2024-02-23T09:04:53;98915.44;;;14.47;62.56
10948;BME280;5526;42.070;24.752;2024-02-23T09:07:21;98914.66;;;14.70;62.51
10948;BME280;5526;42.070;24.752;2024-02-23T09:09:48;98916.53;;;14.93;61.23
10948;BME280;5526;42.070;24.752;2024-02-23T09:12:15;98907.06;;;14.64;62.46
10948;BME280;5526;42.070;24.752;2024-02-23T09:14:42;98902.56;;;15.06;61.54
10948;BME280;5526;42.070;24.752;2024-02-23T09:17:09;98903.22;;;15.40;59.31
10948;BME280;5526;42.070;24.752;2024-02-23T09:19:39;98899.59;;;15.31;59.28
10948;BME280;5526;42.070;24.752;2024-02-23T09:22:06;98898.50;;;15.37;57.99
10948;BME280;5526;42.070;24.752;2024-02-23T09:24:33;98894.53;;;15.53;57.83
10948;BME280;5526;42.070;24.752;2024-02-23T09:27:00;98883.47;;;15.65;57.78
10948;BME280;5526;42.070;24.752;2024-02-23T09:29:27;98881.72;;;15.60;57.17
10948;BME280;5526;42.070;24.752;2024-02-23T09:31:54;98886.72;;;15.43;55.45
10948;BME280;5526;42.070;24.752;2024-02-23T09:34:22;98879.88;;;15.19;57.17
10948;BME280;5526;42.070;24.752;2024-02-23T09:36:50;98881.13;;;15.45;57.33
10948;BME280;5526;42.070;24.752;2024-02-23T09:39:17;98865.72;;;15.65;56.61
10948;BME280;5526;42.070;24.752;2024-02-23T09:41:45;98865.66;;;16.75;51.16
10948;BME280;5526;42.070;24.752;2024-02-23T09:44:18;98866.06;;;16.23;53.71
10948;BME280;5526;42.070;24.752;2024-02-23T09:46:46;98873.19;;;15.95;54.04
10948;BME280;5526;42.070;24.752;2024-02-23T09:49:15;98868.41;;;15.79;55.12
10948;BME280;5526;42.070;24.752;2024-02-23T09:51:43;98852.88;;;15.72;55.11
10948;BME280;5526;42.070;24.752;2024-02-23T09:54:11;98858.22;;;15.86;54.64
10948;BME280;5526;42.070;24.752;2024-02-23T09:56:39;98850.97;;;15.91;55.28
10948;BME280;5526;42.070;24.752;2024-02-23T09:59:07;98845.00;;;15.99;54.79
10948;BME280;5526;42.070;24.752;2024-02-23T10:01:34;98842.75;;;16.33;54.18
10948;BME280;5526;42.070;24.752;2024-02-23T10:04:02;98843.06;;;16.32;54.17
10948;BME280;5526;42.070;24.752;2024-02-23T10:06:30;98841.44;;;16.49;54.53
10948;BME280;5526;42.070;24.752;2024-02-23T10:08:57;98839.91;;;16.30;54.70
10948;BME280;5526;42.070;24.752;2024-02-23T10:11:25;98837.91;;;16.08;54.88
10948;BME280;5526;42.070;24.752;2024-02-23T10:13:52;98829.06;;;15.99;55.96
10948;BME280;5526;42.070;24.752;2024-02-23T10:16:20;98826.81;;;16.20;55.09
10948;BME280;5526;42.070;24.752;2024-02-23T10:18:48;98826.38;;;16.45;55.42
10948;BME280;5526;42.070;24.752;2024-02-23T10:21:15;98838.81;;;16.17;54.84
10948;BME280;5526;42.070;24.752;2024-02-23T10:23:43;98824.09;;;16.25;55.79
10948;BME280;5526;42.070;24.752;2024-02-23T10:26:11;98814.44;;;16.15;55.81
10948;BME280;5526;42.070;24.752;2024-02-23T10:28:39;98820.56;;;17.55;49.28
10948;BME280;5526;42.070;24.752;2024-02-23T10:31:06;98821.66;;;17.18;50.17
10948;BME280;5526;42.070;24.752;2024-02-23T10:33:34;98820.38;;;17.16;50.56
10948;BME280;5526;42.070;24.752;2024-02-23T10:36:05;98815.16;;;17.11;51.86
10948;BME280;5526;42.070;24.752;2024-02-23T10:38:35;98797.69;;;17.32;51.15
10948;BME280;5526;42.070;24.752;2024-02-23T10:41:05;98803.88;;;16.91;52.23
10948;BME280;5526;42.070;24.752;2024-02-23T10:43:38;98793.22;;;17.05;51.39
10948;BME280;5526;42.070;24.752;2024-02-23T10:46:09;98797.66;;;17.10;51.49
10948;BME280;5526;42.070;24.752;2024-02-23T10:48:39;98789.88;;;17.35;50.21
10948;BME280;5526;42.070;24.752;2024-02-23T10:51:07;98787.50;;;17.34;49.58
10948;BME280;5526;42.070;24.752;2024-02-23T10:53:35;98784.59;;;17.22;48.74
10948;BME280;5526;42.070;24.752;2024-02-23T10:56:03;98780.97;;;17.18;49.32
10948;BME280;5526;42.070;24.752;2024-02-23T10:58:31;98781.72;;;17.32;49.39
10948;BME280;5526;42.070;24.752;2024-02-23T11:01:02;98769.84;;;17.16;49.72
10948;BME280;5526;42.070;24.752;2024-02-23T11:03:32;98758.13;;;17.17;50.35
10948;BME280;5526;42.070;24.752;2024-02-23T11:06:00;98761.75;;;17.21;50.65
10948;BME280;5526;42.070;24.752;2024-02-23T11:08:28;98756.59;;;17.60;49.92
10948;BME280;5526;42.070;24.752;2024-02-23T11:10:55;98755.56;;;17.78;47.99
10948;BME280;5526;42.070;24.752;2024-02-23T11:13:30;98745.50;;;17.66;46.10
10948;BME280;5526;42.070;24.752;2024-02-23T11:16:01;98742.66;;;17.63;46.99
10948;BME280;5526;42.070;24.752;2024-02-23T11:18:30;98741.16;;;17.48;48.30
10948;BME280;5526;42.070;24.752;2024-02-23T11:20:59;98746.44;;;18.01;46.81
10948;BME280;5526;42.070;24.752;2024-02-23T11:23:27;98745.19;;;17.68;47.58
10948;BME280;5526;42.070;24.752;2024-02-23T11:26:06;98740.31;;;17.92;47.52
10948;BME280;5526;42.070;24.752;2024-02-23T11:28:41;98742.38;;;18.03;46.12
10948;BME280;5526;42.070;24.752;2024-02-23T11:31:13;98732.97;;;17.97;46.91
10948;BME280;5526;42.070;24.752;2024-02-23T11:33:47;98730.34;;;18.14;47.49
10948;BME280;5526;42.070;24.752;2024-02-23T11:36:22;98729.16;;;18.20;47.10
10948;BME280;5526;42.070;24.752;2024-02-23T11:38:52;98729.94;;;18.29;46.66
10948;BME280;5526;42.070;24.752;2024-02-23T11:41:21;98720.31;;;18.11;46.28
10948;BME280;5526;42.070;24.752;2024-02-23T11:43:49;98719.28;;;18.29;45.76
10948;BME280;5526;42.070;24.752;2024-02-23T11:46:16;98718.25;;;18.56;45.96
10948;BME280;5526;42.070;24.752;2024-02-23T11:48:45;98710.75;;;18.58;44.92
10948;BME280;5526;42.070;24.752;2024-02-23T11:51:13;98720.31;;;18.59;44.97
10948;BME280;5526;42.070;24.752;2024-02-23T11:53:40;98711.19;;;18.43;45.83
10948;BME280;5526;42.070;24.752;2024-02-23T11:56:07;98707.28;;;18.49;46.00
10948;BME280;5526;42.070;24.752;2024-02-23T11:58:34;98715.94;;;18.63;46.57
10948;BME280;5526;42.070;24.752;2024-02-23T12:01:02;98711.91;;;18.26;46.04
10948;BME280;5526;42.070;24.752;2024-02-23T12:03:29;98696.06;;;18.21;46.42
10948;BME280;5526;42.070;24.752;2024-02-23T12:05:58;98702.88;;;18.53;45.88
10948;BME280;5526;42.070;24.752;2024-02-23T12:08:26;98711.53;;;18.50;45.63
10948;BME280;5526;42.070;24.752;2024-02-23T12:10:54;98711.41;;;19.31;43.18
10948;BME280;5526;42.070;24.752;2024-02-23T12:13:21;98671.38;;;18.72;44.98
10948;BME280;5526;42.070;24.752;2024-02-23T12:15:52;98698.38;;;19.04;44.42
10948;BME280;5526;42.070;24.752;2024-02-23T12:18:21;98696.63;;;19.17;44.02
10948;BME280;5526;42.070;24.752;2024-02-23T12:20:51;98687.84;;;18.91;44.27
10948;BME280;5526;42.070;24.752;2024-02-23T12:23:20;98687.53;;;18.84;45.43
10948;BME280;5526;42.070;24.752;2024-02-23T12:25:54;98690.84;;;19.06;44.98
10948;BME280;5526;42.070;24.752;2024-02-23T12:28:23;98683.63;;;19.15;44.72
10948;BME280;5526;42.070;24.752;2024-02-23T12:30:59;98680.31;;;19.27;44.11
10948;BME280;5526;42.070;24.752;2024-02-23T12:33:28;98671.69;;;19.30;44.16
10948;BME280;5526;42.070;24.752;2024-02-23T12:35:56;98667.13;;;19.22;44.16
10948;BME280;5526;42.070;24.752;2024-02-23T12:38:26;98664.28;;;19.35;44.31
10948;BME280;5526;42.070;24.752;2024-02-23T12:40:53;98666.06;;;18.89;45.12
10948;BME280;5526;42.070;24.752;2024-02-23T12:43:21;98664.19;;;19.06;45.00
10948;BME280;5526;42.070;24.752;2024-02-23T12:45:50;98645.78;;;19.13;43.42
10948;BME280;5526;42.070;24.752;2024-02-23T12:48:17;98640.28;;;19.18;42.68
10948;BME280;5526;42.070;24.752;2024-02-23T12:50:44;98649.72;;;19.07;43.48
10948;BME280;5526;42.070;24.752;2024-02-23T12:53:32;98645.00;;;19.13;42.61
10948;BME280;5526;42.070;24.752;2024-02-23T12:56:00;98634.50;;;19.25;43.55
10948;BME280;5526;42.070;24.752;2024-02-23T12:58:28;98636.47;;;19.45;43.01
10948;BME280;5526;42.070;24.752;2024-02-23T13:00:56;98634.66;;;19.66;42.61
10948;BME280;5526;42.070;24.752;2024-02-23T13:03:24;98636.19;;;19.75;42.25
10948;BME280;5526;42.070;24.752;2024-02-23T13:05:52;98640.34;;;19.93;42.33